sensor_id;sensor_type;location;lat;lon;timestamp;pressure;altitude;pressure_sealevel;temperature;humidity
57948;BME280;43754;56.992;24.292;2023-07-29T00:02:24;100384.16;;;15.83;100.00
57948;BME280;43754;56.992;24.292;2023-07-29T00:04:57;100383.56;;;15.81;100.00
57948;BME280;43754;56.992;24.292;2023-07-29T00:07:29;100384.44;;;15.75;100.00
57948;BME280;43754;56.992;24.292;2023-07-29T00:10:01;100374.69;;;15.74;100.00
57948;BME280;43754;56.992;24.292;2023-07-29T00:12:33;100383.59;;;15.74;100.00
57948;BME280;43754;56.992;24.292;2023-07-29T00:15:06;100386.31;;;15.74;100.00
57948;BME280;43754;56.992;24.292;2023-07-29T00:17:38;100378.19;;;15.74;100.00
57948;BME280;43754;56.992;24.292;2023-07-29T00:20:12;100388.78;;;15.76;100.00
57948;BME280;43754;56.992;24.292;2023-07-29T00:22:44;100381.81;;;15.68;100.00
57948;BME280;43754;56.992;24.292;2023-07-29T00:25:16;100384.13;;;15.64;100.00
57948;BME280;43754;56.992;24.292;2023-07-29T00:27:48;100384.88;;;15.72;100.00
57948;BME280;43754;56.992;24.292;2023-07-29T00:30:20;100382.63;;;15.69;100.00
57948;BME280;43754;56.992;24.292;2023-07-29T00:32:52;100380.59;;;15.64;100.00
57948;BME280;43754;56.992;24.292;2023-07-29T00:35:26;100385.75;;;15.65;100.00
57948;BME280;43754;56.992;24.292;2023-07-29T00:37:58;100382.63;;;15.69;100.00
57948;BME280;43754;56.992;24.292;2023-07-29T00:40:35;100382.25;;;15.65;100.00
57948;BME280;43754;56.992;24.292;2023-07-29T00:43:07;100384.13;;;15.64;100.00
57948;BME280;43754;56.992;24.292;2023-07-29T00:45:41;100383.28;;;15.64;100.00
57948;BME280;43754;56.992;24.292;2023-07-29T00:48:15;100383.50;;;15.62;100.00
57948;BME280;43754;56.992;24.292;2023-07-29T00:50:49;100390.56;;;15.63;100.00
57948;BME280;43754;56.992;24.292;2023-07-29T00:53:21;100399.50;;;15.64;100.00
57948;BME280;43754;56.992;24.292;2023-07-29T00:55:54;100394.09;;;15.64;100.00
57948;BME280;43754;56.992;24.292;2023-07-29T00:58:26;100388.91;;;15.62;100.00
57948;BME280;43754;56.992;24.292;2023-07-29T01:00:58;100385.63;;;15.60;100.00
57948;BME280;43754;56.992;24.292;2023-07-29T01:03:31;100391.22;;;15.59;100.00
57948;BME280;43754;56.992;24.292;2023-07-29T01:06:12;100380.22;;;15.60;100.00
57948;BME280;43754;56.992;24.292;2023-07-29T01:08:53;100383.97;;;15.59;100.00
57948;BME280;43754;56.992;24.292;2023-07-29T01:11:35;100381.72;;;15.56;100.00
57948;BME280;43754;56.992;24.292;2023-07-29T01:14:19;100383.19;;;15.52;100.00
57948;BME280;43754;56.992;24.292;2023-07-29T01:16:57;100382.16;;;15.47;100.00
57948;BME280;43754;56.992;24.292;2023-07-29T01:19:43;100389.06;;;15.43;100.00
57948;BME280;43754;56.992;24.292;2023-07-29T01:22:23;100386.38;;;15.36;100.00
57948;BME280;43754;56.992;24.292;2023-07-29T01:24:57;100398.06;;;15.30;100.00
57948;BME280;43754;56.992;24.292;2023-07-29T01:27:30;100385.63;;;15.29;100.00
57948;BME280;43754;56.992;24.292;2023-07-29T01:30:04;100395.66;;;15.22;100.00
57948;BME280;43754;56.992;24.292;2023-07-29T01:32:46;100392.38;;;15.13;100.00
57948;BME280;43754;56.992;24.292;2023-07-29T01:35:24;100384.09;;;15.08;100.00
57948;BME280;43754;56.992;24.292;2023-07-29T01:38:14;100383.72;;;15.05;100.00
57948;BME280;43754;56.992;24.292;2023-07-29T01:40:51;100385.41;;;14.99;100.00
57948;BME280;43754;56.992;24.292;2023-07-29T01:43:24;100384.81;;;14.97;100.00
57948;BME280;43754;56.992;24.292;2023-07-29T01:45:57;100389.63;;;14.89;100.00
57948;BME280;43754;56.992;24.292;2023-07-29T01:48:30;100388.16;;;14.86;100.00
57948;BME280;43754;56.992;24.292;2023-07-29T01:51:03;100391.31;;;14.83;100.00
57948;BME280;43754;56.992;24.292;2023-07-29T01:53:36;100394.88;;;14.77;100.00
57948;BME280;43754;56.992;24.292;2023-07-29T01:56:09;100398.00;;;14.74;100.00
57948;BME280;43754;56.992;24.292;2023-07-29T01:58:45;100393.25;;;14.69;100.00
57948;BME280;43754;56.992;24.292;2023-07-29T02:01:17;100387.44;;;14.66;100.00
57948;BME280;43754;56.992;24.292;2023-07-29T02:03:50;100383.91;;;14.65;100.00
57948;BME280;43754;56.992;24.292;2023-07-29T02:06:26;100383.91;;;14.65;100.00
57948;BME280;43754;56.992;24.292;2023-07-29T02:08:59;100387.28;;;14.61;100.00
57948;BME280;43754;56.992;24.292;2023-07-29T02:11:32;100385.81;;;14.65;100.00
57948;BME280;43754;56.992;24.292;2023-07-29T02:14:05;100387.06;;;14.62;100.00
57948;BME280;43754;56.992;24.292;2023-07-29T02:16:37;100388.72;;;14.63;100.00
57948;BME280;43754;56.992;24.292;2023-07-29T02:19:11;100403.88;;;14.64;100.00
57948;BME280;43754;56.992;24.292;2023-07-29T02:21:43;100401.38;;;14.63;100.00
57948;BME280;43754;56.992;24.292;2023-07-29T02:24:15;100399.72;;;14.62;100.00
57948;BME280;43754;56.992;24.292;2023-07-29T02:26:49;100391.47;;;14.57;100.00
57948;BME280;43754;56.992;24.292;2023-07-29T02:29:21;100403.47;;;14.61;100.00
57948;BME280;43754;56.992;24.292;2023-07-29T02:31:53;100409.28;;;14.58;100.00
57948;BME280;43754;56.992;24.292;2023-07-29T02:34:25;100408.44;;;14.57;100.00
57948;BME280;43754;56.992;24.292;2023-07-29T02:36:57;100412.81;;;14.58;100.00
57948;BME280;43754;56.992;24.292;2023-07-29T02:39:30;100407.22;;;14.60;100.00
57948;BME280;43754;56.992;24.292;2023-07-29T02:42:04;100415.50;;;14.58;100.00
57948;BME280;43754;56.992;24.292;2023-07-29T02:44:36;100411.56;;;14.61;100.00
57948;BME280;43754;56.992;24.292;2023-07-29T02:47:08;100413.59;;;14.65;100.00
57948;BME280;43754;56.992;24.292;2023-07-29T02:49:40;100416.72;;;14.69;100.00
57948;BME280;43754;56.992;24.292;2023-07-29T02:52:12;100413.41;;;14.67;100.00
57948;BME280;43754;56.992;24.292;2023-07-29T02:54:44;100415.06;;;14.68;100.00
57948;BME280;43754;56.992;24.292;2023-07-29T02:57:18;100417.53;;;14.69;100.00
57948;BME280;43754;56.992;24.292;2023-07-29T02:59:50;100420.84;;;14.71;100.00
57948;BME280;43754;56.992;24.292;2023-07-29T03:02:22;100414.41;;;14.72;100.00
57948;BME280;43754;56.992;24.292;2023-07-29T03:04:54;100414.63;;;14.71;100.00
57948;BME280;43754;56.992;24.292;2023-07-29T03:07:26;100422.91;;;14.69;100.00
57948;BME280;43754;56.992;24.292;2023-07-29T03:09:58;100412.56;;;14.66;100.00
57948;BME280;43754;56.992;24.292;2023-07-29T03:12:32;100415.88;;;14.68;100.00
57948;BME280;43754;56.992;24.292;2023-07-29T03:15:05;100410.44;;;14.75;100.00
57948;BME280;43754;56.992;24.292;2023-07-29T03:17:37;100421.38;;;14.87;100.00
57948;BME280;43754;56.992;24.292;2023-07-29T03:20:09;100420.53;;;14.93;100.00
57948;BME280;43754;56.992;24.292;2023-07-29T03:22:42;100418.88;;;14.92;100.00
57948;BME280;43754;56.992;24.292;2023-07-29T03:25:14;100418.84;;;14.98;100.00
57948;BME280;43754;56.992;24.292;2023-07-29T03:27:48;100421.94;;;15.02;100.00
57948;BME280;43754;56.992;24.292;2023-07-29T03:30:22;100421.75;;;14.97;100.00
57948;BME280;43754;56.992;24.292;2023-07-29T03:32:55;100420.72;;;14.98;100.00
57948;BME280;43754;56.992;24.292;2023-07-29T03:35:27;100421.72;;;15.03;100.00
57948;BME280;43754;56.992;24.292;2023-07-29T03:37:59;100434.94;;;15.11;100.00
57948;BME280;43754;56.992;24.292;2023-07-29T03:40:31;100430.56;;;15.17;100.00
57948;BME280;43754;56.992;24.292;2023-07-29T03:43:05;100432.41;;;15.23;100.00
57948;BME280;43754;56.992;24.292;2023-07-29T03:45:37;100443.78;;;15.32;100.00
57948;BME280;43754;56.992;24.292;2023-07-29T03:48:10;100452.22;;;15.42;100.00
57948;BME280;43754;56.992;24.292;2023-07-29T03:50:42;100446.75;;;15.55;100.00
57948;BME280;43754;56.992;24.292;2023-07-29T03:53:14;100449.63;;;15.60;100.00
57948;BME280;43754;56.992;24.292;2023-07-29T03:55:47;100449.72;;;15.72;100.00
57948;BME280;43754;56.992;24.292;2023-07-29T03:58:20;100443.00;;;15.81;100.00
57948;BME280;43754;56.992;24.292;2023-07-29T04:00:52;100443.78;;;15.88;100.00
57948;BME280;43754;56.992;24.292;2023-07-29T04:03:25;100445.34;;;15.95;100.00
57948;BME280;43754;56.992;24.292;2023-07-29T04:05:59;100452.63;;;15.95;100.00
57948;BME280;43754;56.992;24.292;2023-07-29T04:08:31;100458.16;;;16.06;100.00
57948;BME280;43754;56.992;24.292;2023-07-29T04:11:03;100459.00;;;16.25;100.00
57948;BME280;43754;56.992;24.292;2023-07-29T04:13:37;100449.31;;;16.61;100.00
57948;BME280;43754;56.992;24.292;2023-07-29T04:16:09;100446.91;;;17.00;100.00
57948;BME280;43754;56.992;24.292;2023-07-29T04:18:41;100444.31;;;17.65;100.00
57948;BME280;43754;56.992;24.292;2023-07-29T04:21:13;100444.34;;;17.88;100.00
57948;BME280;43754;56.992;24.292;2023-07-29T04:23:45;100442.91;;;18.44;100.00
57948;BME280;43754;56.992;24.292;2023-07-29T04:26:17;100436.53;;;18.38;100.00
57948;BME280;43754;56.992;24.292;2023-07-29T04:28:51;100434.38;;;19.04;100.00
57948;BME280;43754;56.992;24.292;2023-07-29T04:31:23;100443.75;;;18.56;100.00
57948;BME280;43754;56.992;24.292;2023-07-29T04:33:56;100441.06;;;17.98;100.00
57948;BME280;43754;56.992;24.292;2023-07-29T04:36:28;100443.03;;;18.26;100.00
57948;BME280;43754;56.992;24.292;2023-07-29T04:39:00;100434.53;;;18.34;100.00
57948;BME280;43754;56.992;24.292;2023-07-29T04:41:32;100433.59;;;18.40;100.00
57948;BME280;43754;56.992;24.292;2023-07-29T04:44:06;100439.75;;;18.24;100.00
57948;BME280;43754;56.992;24.292;2023-07-29T04:46:38;100438.72;;;18.76;100.00
57948;BME280;43754;56.992;24.292;2023-07-29T04:49:10;100437.03;;;18.87;100.00
57948;BME280;43754;56.992;24.292;2023-07-29T04:51:42;100444.38;;;18.87;100.00
57948;BME280;43754;56.992;24.292;2023-07-29T04:54:14;100435.25;;;18.93;100.00
57948;BME280;43754;56.992;24.292;2023-07-29T04:56:47;100442.44;;;18.99;100.00
57948;BME280;43754;56.992;24.292;2023-07-29T04:59:23;100449.84;;;19.32;100.00
57948;BME280;43754;56.992;24.292;2023-07-29T05:01:56;100455.41;;;19.37;100.00
57948;BME280;43754;56.992;24.292;2023-07-29T05:04:28;100456.94;;;19.33;100.00
57948;BME280;43754;56.992;24.292;2023-07-29T05:07:00;100468.72;;;19.10;100.00
57948;BME280;43754;56.992;24.292;2023-07-29T05:09:32;100474.00;;;18.88;100.00
57948;BME280;43754;56.992;24.292;2023-07-29T05:12:05;100470.00;;;18.79;100.00
57948;BME280;43754;56.992;24.292;2023-07-29T05:14:39;100471.09;;;18.78;100.00
57948;BME280;43754;56.992;24.292;2023-07-29T05:17:11;100475.59;;;18.37;100.00
57948;BME280;43754;56.992;24.292;2023-07-29T05:19:44;100470.78;;;18.28;100.00
57948;BME280;43754;56.992;24.292;2023-07-29T05:22:16;100471.59;;;18.28;100.00
57948;BME280;43754;56.992;24.292;2023-07-29T05:24:48;100473.59;;;18.33;100.00
57948;BME280;43754;56.992;24.292;2023-07-29T05:27:20;100474.06;;;18.30;100.00
57948;BME280;43754;56.992;24.292;2023-07-29T05:29:53;100472.53;;;18.22;100.00
57948;BME280;43754;56.992;24.292;2023-07-29T05:32:25;100474.06;;;18.07;100.00
57948;BME280;43754;56.992;24.292;2023-07-29T05:34:58;100477.25;;;18.04;100.00
57948;BME280;43754;56.992;24.292;2023-07-29T05:37:30;100477.00;;;18.05;100.00
57948;BME280;43754;56.992;24.292;2023-07-29T05:40:02;100472.41;;;18.06;100.00
57948;BME280;43754;56.992;24.292;2023-07-29T05:42:35;100477.13;;;18.10;100.00
57948;BME280;43754;56.992;24.292;2023-07-29T05:45:09;100487.16;;;18.45;100.00
57948;BME280;43754;56.992;24.292;2023-07-29T05:47:41;100484.31;;;18.51;100.00
57948;BME280;43754;56.992;24.292;2023-07-29T05:50:14;100491.28;;;18.47;100.00
57948;BME280;43754;56.992;24.292;2023-07-29T05:52:46;100479.03;;;18.96;100.00
57948;BME280;43754;56.992;24.292;2023-07-29T05:55:18;100478.53;;;19.11;100.00
57948;BME280;43754;56.992;24.292;2023-07-29T05:57:50;100478.91;;;19.43;100.00
57948;BME280;43754;56.992;24.292;2023-07-29T06:00:24;100480.75;;;19.87;100.00
57948;BME280;43754;56.992;24.292;2023-07-29T06:02:56;100479.22;;;19.91;100.00
57948;BME280;43754;56.992;24.292;2023-07-29T06:05:28;100482.56;;;19.98;100.00
57948;BME280;43754;56.992;24.292;2023-07-29T06:08:00;100483.66;;;20.31;100.00
57948;BME280;43754;56.992;24.292;2023-07-29T06:10:33;100483.50;;;20.59;100.00
57948;BME280;43754;56.992;24.292;2023-07-29T06:13:05;100487.59;;;20.40;100.00
57948;BME280;43754;56.992;24.292;2023-07-29T06:15:39;100485.13;;;20.38;100.00
57948;BME280;43754;56.992;24.292;2023-07-29T06:18:11;100486.25;;;20.42;100.00
57948;BME280;43754;56.992;24.292;2023-07-29T06:20:43;100487.59;;;20.40;100.00
57948;BME280;43754;56.992;24.292;2023-07-29T06:23:15;100495.44;;;20.19;100.00
57948;BME280;43754;56.992;24.292;2023-07-29T06:25:47;100492.72;;;20.19;100.00
57948;BME280;43754;56.992;24.292;2023-07-29T06:28:19;100491.75;;;20.64;100.00
57948;BME280;43754;56.992;24.292;2023-07-29T06:30:53;100481.19;;;20.89;100.00
57948;BME280;43754;56.992;24.292;2023-07-29T06:33:25;100493.63;;;20.63;100.00
57948;BME280;43754;56.992;24.292;2023-07-29T06:35:57;100492.44;;;20.38;100.00
57948;BME280;43754;56.992;24.292;2023-07-29T06:38:29;100496.59;;;20.40;100.00
57948;BME280;43754;56.992;24.292;2023-07-29T06:41:01;100502.13;;;20.67;100.00
57948;BME280;43754;56.992;24.292;2023-07-29T06:43:34;100496.75;;;20.94;100.00
57948;BME280;43754;56.992;24.292;2023-07-29T06:46:07;100505.38;;;20.64;100.00
57948;BME280;43754;56.992;24.292;2023-07-29T06:48:39;100501.28;;;20.28;100.00
57948;BME280;43754;56.992;24.292;2023-07-29T06:51:11;100497.16;;;20.09;100.00
57948;BME280;43754;56.992;24.292;2023-07-29T06:53:44;100512.75;;;19.97;100.00
57948;BME280;43754;56.992;24.292;2023-07-29T06:56:16;100505.31;;;19.92;100.00
57948;BME280;43754;56.992;24.292;2023-07-29T06:58:48;100508.38;;;19.96;100.00
57948;BME280;43754;56.992;24.292;2023-07-29T07:01:21;100505.06;;;20.27;100.00
57948;BME280;43754;56.992;24.292;2023-07-29T07:03:53;100506.59;;;20.95;100.00
57948;BME280;43754;56.992;24.292;2023-07-29T07:06:26;100501.34;;;21.32;100.00
57948;BME280;43754;56.992;24.292;2023-07-29T07:08:58;100500.75;;;21.30;100.00
57948;BME280;43754;56.992;24.292;2023-07-29T07:11:30;100499.41;;;21.54;100.00
57948;BME280;43754;56.992;24.292;2023-07-29T07:14:02;100499.16;;;21.87;100.00
57948;BME280;43754;56.992;24.292;2023-07-29T07:16:35;100502.56;;;21.99;100.00
57948;BME280;43754;56.992;24.292;2023-07-29T07:19:09;100492.19;;;22.01;100.00
57948;BME280;43754;56.992;24.292;2023-07-29T07:21:41;100492.88;;;22.19;100.00
57948;BME280;43754;56.992;24.292;2023-07-29T07:24:13;100491.63;;;22.36;100.00
57948;BME280;43754;56.992;24.292;2023-07-29T07:26:45;100488.31;;;22.34;99.31
57948;BME280;43754;56.992;24.292;2023-07-29T07:29:17;100488.50;;;22.65;98.86
57948;BME280;43754;56.992;24.292;2023-07-29T07:31:52;100499.03;;;22.88;97.67
57948;BME280;43754;56.992;24.292;2023-07-29T07:34:25;100497.97;;;22.94;98.68
57948;BME280;43754;56.992;24.292;2023-07-29T07:36:57;100497.84;;;23.36;96.60
57948;BME280;43754;56.992;24.292;2023-07-29T07:39:29;100486.91;;;23.41;92.54
57948;BME280;43754;56.992;24.292;2023-07-29T07:42:01;100487.72;;;23.36;93.89
57948;BME280;43754;56.992;24.292;2023-07-29T07:44:34;100494.34;;;23.46;93.19
57948;BME280;43754;56.992;24.292;2023-07-29T07:47:07;100492.47;;;23.76;93.37
57948;BME280;43754;56.992;24.292;2023-07-29T07:49:39;100499.56;;;23.93;91.08
57948;BME280;43754;56.992;24.292;2023-07-29T07:52:11;100495.91;;;23.31;90.88
57948;BME280;43754;56.992;24.292;2023-07-29T07:54:43;100499.09;;;22.98;91.56
57948;BME280;43754;56.992;24.292;2023-07-29T07:57:15;100498.84;;;23.00;92.53
57948;BME280;43754;56.992;24.292;2023-07-29T07:59:47;100491.25;;;23.17;92.05
57948;BME280;43754;56.992;24.292;2023-07-29T08:02:21;100498.38;;;23.38;89.00
57948;BME280;43754;56.992;24.292;2023-07-29T08:04:54;100485.81;;;23.37;89.92
57948;BME280;43754;56.992;24.292;2023-07-29T08:07:26;100492.84;;;23.08;90.44
57948;BME280;43754;56.992;24.292;2023-07-29T08:09:58;100495.00;;;23.06;89.97
57948;BME280;43754;56.992;24.292;2023-07-29T08:12:30;100495.44;;;22.77;88.89
57948;BME280;43754;56.992;24.292;2023-07-29T08:15:02;100495.97;;;22.79;88.86
57948;BME280;43754;56.992;24.292;2023-07-29T08:17:36;100495.63;;;23.38;86.74
57948;BME280;43754;56.992;24.292;2023-07-29T08:20:08;100494.38;;;23.86;85.03
57948;BME280;43754;56.992;24.292;2023-07-29T08:22:41;100493.56;;;24.01;84.07
57948;BME280;43754;56.992;24.292;2023-07-29T08:25:13;100495.16;;;24.47;80.41
57948;BME280;43754;56.992;24.292;2023-07-29T08:27:45;100490.19;;;24.69;79.69
57948;BME280;43754;56.992;24.292;2023-07-29T08:30:18;100488.63;;;24.08;79.51
57948;BME280;43754;56.992;24.292;2023-07-29T08:32:52;100490.53;;;23.62;81.87
57948;BME280;43754;56.992;24.292;2023-07-29T08:35:24;100487.81;;;24.12;79.65
57948;BME280;43754;56.992;24.292;2023-07-29T08:37:56;100489.47;;;24.28;77.28
57948;BME280;43754;56.992;24.292;2023-07-29T08:40:29;100494.56;;;24.70;78.26
57948;BME280;43754;56.992;24.292;2023-07-29T08:43:04;100492.03;;;24.94;75.46
57948;BME280;43754;56.992;24.292;2023-07-29T08:45:36;100497.75;;;25.08;74.89
57948;BME280;43754;56.992;24.292;2023-07-29T08:48:13;100492.03;;;24.99;76.00
57948;BME280;43754;56.992;24.292;2023-07-29T08:50:49;100497.66;;;25.23;74.33
57948;BME280;43754;56.992;24.292;2023-07-29T08:53:22;100498.63;;;24.88;73.16
57948;BME280;43754;56.992;24.292;2023-07-29T08:55:54;100498.22;;;24.46;76.14
57948;BME280;43754;56.992;24.292;2023-07-29T08:58:27;100505.31;;;23.76;78.43
57948;BME280;43754;56.992;24.292;2023-07-29T09:01:00;100508.22;;;23.39;79.27
57948;BME280;43754;56.992;24.292;2023-07-29T09:03:34;100503.69;;;22.92;80.05
57948;BME280;43754;56.992;24.292;2023-07-29T09:06:06;100501.59;;;22.58;81.42
57948;BME280;43754;56.992;24.292;2023-07-29T09:08:39;100499.03;;;22.41;80.56
57948;BME280;43754;56.992;24.292;2023-07-29T09:11:13;100503.31;;;22.27;82.08
57948;BME280;43754;56.992;24.292;2023-07-29T09:13:45;100506.81;;;22.22;83.68
57948;BME280;43754;56.992;24.292;2023-07-29T09:16:18;100511.94;;;22.14;88.51
57948;BME280;43754;56.992;24.292;2023-07-29T09:18:52;100507.56;;;22.13;86.83
57948;BME280;43754;56.992;24.292;2023-07-29T09:21:25;100499.03;;;22.41;85.17
57948;BME280;43754;56.992;24.292;2023-07-29T09:24:03;100505.53;;;22.77;85.36
57948;BME280;43754;56.992;24.292;2023-07-29T09:26:36;100513.03;;;23.02;81.43
57948;BME280;43754;56.992;24.292;2023-07-29T09:29:09;100513.03;;;23.02;82.06
57948;BME280;43754;56.992;24.292;2023-07-29T09:31:41;100521.28;;;22.65;81.54
57948;BME280;43754;56.992;24.292;2023-07-29T09:34:15;100517.28;;;22.35;83.01
57948;BME280;43754;56.992;24.292;2023-07-29T09:36:50;100526.41;;;22.51;82.66
57948;BME280;43754;56.992;24.292;2023-07-29T09:39:23;100525.31;;;22.94;82.49
57948;BME280;43754;56.992;24.292;2023-07-29T09:41:56;100525.84;;;23.58;80.48
57948;BME280;43754;56.992;24.292;2023-07-29T09:44:28;100525.88;;;23.83;80.52
57948;BME280;43754;56.992;24.292;2023-07-29T09:47:07;100522.59;;;24.07;77.92
57948;BME280;43754;56.992;24.292;2023-07-29T09:49:40;100529.72;;;24.18;75.92
57948;BME280;43754;56.992;24.292;2023-07-29T09:52:14;100525.88;;;24.14;75.49
57948;BME280;43754;56.992;24.292;2023-07-29T09:54:47;100526.44;;;24.46;74.73
57948;BME280;43754;56.992;24.292;2023-07-29T09:57:20;100520.34;;;24.59;74.32
57948;BME280;43754;56.992;24.292;2023-07-29T09:59:56;100514.53;;;24.91;71.53
57948;BME280;43754;56.992;24.292;2023-07-29T10:02:28;100520.22;;;25.10;72.60
57948;BME280;43754;56.992;24.292;2023-07-29T10:05:04;100517.53;;;24.85;66.66
57948;BME280;43754;56.992;24.292;2023-07-29T10:07:38;100520.31;;;24.80;69.70
57948;BME280;43754;56.992;24.292;2023-07-29T10:10:11;100523.06;;;24.69;69.02
57948;BME280;43754;56.992;24.292;2023-07-29T10:12:44;100522.19;;;24.84;70.06
57948;BME280;43754;56.992;24.292;2023-07-29T10:15:17;100519.13;;;25.06;65.20
57948;BME280;43754;56.992;24.292;2023-07-29T10:17:50;100522.13;;;25.09;64.90
57948;BME280;43754;56.992;24.292;2023-07-29T10:20:24;100513.00;;;25.29;61.43
57948;BME280;43754;56.992;24.292;2023-07-29T10:22:59;100518.75;;;25.33;59.46
57948;BME280;43754;56.992;24.292;2023-07-29T10:25:39;100524.28;;;25.23;57.56
57948;BME280;43754;56.992;24.292;2023-07-29T10:28:15;100527.81;;;25.28;56.47
57948;BME280;43754;56.992;24.292;2023-07-29T10:30:51;100523.97;;;25.29;56.83
57948;BME280;43754;56.992;24.292;2023-07-29T10:33:23;100515.25;;;25.17;54.31
57948;BME280;43754;56.992;24.292;2023-07-29T10:35:57;100518.53;;;25.19;54.10
57948;BME280;43754;56.992;24.292;2023-07-29T10:38:29;100511.59;;;25.32;54.60
57948;BME280;43754;56.992;24.292;2023-07-29T10:41:01;100512.63;;;24.82;52.35
57948;BME280;43754;56.992;24.292;2023-07-29T10:43:35;100514.09;;;24.49;53.71
57948;BME280;43754;56.992;24.292;2023-07-29T10:46:17;100505.53;;;24.65;54.17
57948;BME280;43754;56.992;24.292;2023-07-29T10:48:54;100508.69;;;25.13;54.39
57948;BME280;43754;56.992;24.292;2023-07-29T10:51:29;100506.44;;;25.25;52.83
57948;BME280;43754;56.992;24.292;2023-07-29T10:54:03;100513.13;;;25.04;54.73
57948;BME280;43754;56.992;24.292;2023-07-29T10:56:37;100507.78;;;25.28;53.98
57948;BME280;43754;56.992;24.292;2023-07-29T10:59:33;100505.38;;;25.21;53.14
57948;BME280;43754;56.992;24.292;2023-07-29T11:02:14;100514.22;;;24.98;54.26
57948;BME280;43754;56.992;24.292;2023-07-29T11:04:50;100510.91;;;25.06;55.47
57948;BME280;43754;56.992;24.292;2023-07-29T11:07:24;100516.00;;;25.33;53.73
57948;BME280;43754;56.992;24.292;2023-07-29T11:10:01;100508.50;;;25.48;54.89
57948;BME280;43754;56.992;24.292;2023-07-29T11:12:41;100511.81;;;25.45;55.69
57948;BME280;43754;56.992;24.292;2023-07-29T11:15:16;100511.25;;;25.53;54.24
57948;BME280;43754;56.992;24.292;2023-07-29T11:17:51;100513.72;;;25.45;53.07
57948;BME280;43754;56.992;24.292;2023-07-29T11:20:25;100510.63;;;25.61;54.09
57948;BME280;43754;56.992;24.292;2023-07-29T11:22:59;100506.84;;;25.47;55.57
57948;BME280;43754;56.992;24.292;2023-07-29T11:25:32;100511.56;;;25.42;56.15
57948;BME280;43754;56.992;24.292;2023-07-29T11:28:05;100516.78;;;25.38;55.94
57948;BME280;43754;56.992;24.292;2023-07-29T11:30:39;100524.47;;;25.36;55.54
57948;BME280;43754;56.992;24.292;2023-07-29T11:33:12;100526.25;;;25.17;54.89
57948;BME280;43754;56.992;24.292;2023-07-29T11:35:44;100521.00;;;25.21;53.84
57948;BME280;43754;56.992;24.292;2023-07-29T11:38:19;100529.50;;;25.24;54.39
57948;BME280;43754;56.992;24.292;2023-07-29T11:40:55;100519.56;;;24.49;54.36
57948;BME280;43754;56.992;24.292;2023-07-29T11:43:28;100522.03;;;24.10;56.17
57948;BME280;43754;56.992;24.292;2023-07-29T11:46:01;100529.72;;;24.33;56.70
57948;BME280;43754;56.992;24.292;2023-07-29T11:48:33;100516.50;;;24.65;55.88
57948;BME280;43754;56.992;24.292;2023-07-29T11:51:05;100509.88;;;24.82;55.55
57948;BME280;43754;56.992;24.292;2023-07-29T11:53:41;100519.69;;;25.08;52.46
57948;BME280;43754;56.992;24.292;2023-07-29T11:56:13;100523.00;;;25.00;53.80
57948;BME280;43754;56.992;24.292;2023-07-29T11:58:46;100516.00;;;24.53;54.17
57948;BME280;43754;56.992;24.292;2023-07-29T12:01:18;100516.03;;;24.18;54.77
57948;BME280;43754;56.992;24.292;2023-07-29T12:03:50;100516.31;;;24.16;55.73
57948;BME280;43754;56.992;24.292;2023-07-29T12:06:23;100517.13;;;24.12;54.33
57948;BME280;43754;56.992;24.292;2023-07-29T12:08:58;100519.03;;;23.96;55.24
57948;BME280;43754;56.992;24.292;2023-07-29T12:11:30;100519.88;;;24.27;53.91
57948;BME280;43754;56.992;24.292;2023-07-29T12:14:02;100517.38;;;24.36;52.89
57948;BME280;43754;56.992;24.292;2023-07-29T12:16:40;100514.59;;;24.61;52.94
57948;BME280;43754;56.992;24.292;2023-07-29T12:19:13;100512.88;;;24.95;53.54
57948;BME280;43754;56.992;24.292;2023-07-29T12:21:45;100520.22;;;25.10;51.41
57948;BME280;43754;56.992;24.292;2023-07-29T12:24:19;100519.56;;;25.33;52.56
57948;BME280;43754;56.992;24.292;2023-07-29T12:26:51;100518.31;;;25.59;52.15
57948;BME280;43754;56.992;24.292;2023-07-29T12:29:23;100514.88;;;25.83;51.26
57948;BME280;43754;56.992;24.292;2023-07-29T12:31:59;100516.56;;;25.79;50.24
57948;BME280;43754;56.992;24.292;2023-07-29T12:34:32;100520.69;;;25.76;48.51
57948;BME280;43754;56.992;24.292;2023-07-29T12:37:05;100510.25;;;25.78;49.26
57948;BME280;43754;56.992;24.292;2023-07-29T12:39:41;100507.22;;;25.80;46.59
57948;BME280;43754;56.992;24.292;2023-07-29T12:42:14;100513.84;;;25.74;50.18
57948;BME280;43754;56.992;24.292;2023-07-29T12:44:46;100511.78;;;25.89;48.95
57948;BME280;43754;56.992;24.292;2023-07-29T12:47:18;100519.19;;;25.94;49.32
57948;BME280;43754;56.992;24.292;2023-07-29T12:49:50;100518.84;;;25.67;46.86
57948;BME280;43754;56.992;24.292;2023-07-29T12:52:22;100516.34;;;25.21;48.45
57948;BME280;43754;56.992;24.292;2023-07-29T12:54:56;100523.06;;;24.80;49.37
57948;BME280;43754;56.992;24.292;2023-07-29T12:57:28;100518.06;;;25.02;50.52
57948;BME280;43754;56.992;24.292;2023-07-29T13:00:00;100520.84;;;24.82;50.30
57948;BME280;43754;56.992;24.292;2023-07-29T13:02:32;100523.44;;;24.38;49.92
57948;BME280;43754;56.992;24.292;2023-07-29T13:05:05;100524.44;;;24.72;49.54
57948;BME280;43754;56.992;24.292;2023-07-29T13:07:38;100519.50;;;24.79;50.09